sensor_id;sensor_type;location;lat;lon;timestamp;P1;durP1;ratioP1;P2;durP2;ratioP2
75920;SDS011;64600;44.062;2.986;2023-02-22T00:00:49;24.40;;;12.70;;
75920;SDS011;64600;44.062;2.986;2023-02-22T00:03:23;25.75;;;13.52;;
75920;SDS011;64600;44.062;2.986;2023-02-22T00:05:56;23.90;;;12.02;;
75920;SDS011;64600;44.062;2.986;2023-02-22T00:08:25;23.02;;;12.52;;
75920;SDS011;64600;44.062;2.986;2023-02-22T00:10:55;21.77;;;11.43;;
75920;SDS011;64600;44.062;2.986;2023-02-22T00:13:21;22.15;;;12.40;;
75920;SDS011;64600;44.062;2.986;2023-02-22T00:15:47;21.70;;;11.88;;
75920;SDS011;64600;44.062;2.986;2023-02-22T00:18:13;19.63;;;10.48;;
75920;SDS011;64600;44.062;2.986;2023-02-22T00:20:40;16.90;;;9.60;;
75920;SDS011;64600;44.062;2.986;2023-02-22T00:23:06;21.45;;;10.18;;
75920;SDS011;64600;44.062;2.986;2023-02-22T00:25:33;22.90;;;11.23;;
75920;SDS011;64600;44.062;2.986;2023-02-22T00:27:59;24.67;;;12.73;;
75920;SDS011;64600;44.062;2.986;2023-02-22T00:30:26;33.85;;;17.05;;
75920;SDS011;64600;44.062;2.986;2023-02-22T00:32:54;29.42;;;15.07;;
75920;SDS011;64600;44.062;2.986;2023-02-22T00:35:21;24.35;;;12.40;;
75920;SDS011;64600;44.062;2.986;2023-02-22T00:37:49;37.53;;;19.02;;
75920;SDS011;64600;44.062;2.986;2023-02-22T00:40:17;52.22;;;24.77;;
75920;SDS011;64600;44.062;2.986;2023-02-22T00:42:44;23.83;;;13.60;;
75920;SDS011;64600;44.062;2.986;2023-02-22T00:45:10;24.23;;;12.32;;
75920;SDS011;64600;44.062;2.986;2023-02-22T00:47:36;23.70;;;12.60;;
75920;SDS011;64600;44.062;2.986;2023-02-22T00:50:02;29.58;;;15.23;;
75920;SDS011;64600;44.062;2.986;2023-02-22T00:52:28;28.60;;;14.63;;
75920;SDS011;64600;44.062;2.986;2023-02-22T00:54:54;24.95;;;12.82;;
75920;SDS011;64600;44.062;2.986;2023-02-22T00:57:21;21.23;;;12.02;;
75920;SDS011;64600;44.062;2.986;2023-02-22T00:59:46;21.40;;;11.15;;
75920;SDS011;64600;44.062;2.986;2023-02-22T01:02:12;22.13;;;11.85;;
75920;SDS011;64600;44.062;2.986;2023-02-22T01:04:37;25.60;;;11.45;;
75920;SDS011;64600;44.062;2.986;2023-02-22T01:07:03;24.38;;;13.75;;
75920;SDS011;64600;44.062;2.986;2023-02-22T01:09:29;26.50;;;11.55;;
75920;SDS011;64600;44.062;2.986;2023-02-22T01:11:55;28.38;;;16.35;;
75920;SDS011;64600;44.062;2.986;2023-02-22T01:14:21;25.40;;;13.10;;
75920;SDS011;64600;44.062;2.986;2023-02-22T01:16:48;24.13;;;12.73;;
75920;SDS011;64600;44.062;2.986;2023-02-22T01:19:15;23.20;;;11.82;;
75920;SDS011;64600;44.062;2.986;2023-02-22T01:21:40;20.45;;;12.18;;
75920;SDS011;64600;44.062;2.986;2023-02-22T01:24:06;20.58;;;11.10;;
75920;SDS011;64600;44.062;2.986;2023-02-22T01:26:32;22.50;;;11.55;;
75920;SDS011;64600;44.062;2.986;2023-02-22T01:28:57;26.92;;;12.15;;
75920;SDS011;64600;44.062;2.986;2023-02-22T01:31:23;27.85;;;13.25;;
75920;SDS011;64600;44.062;2.986;2023-02-22T01:33:49;25.85;;;12.98;;
75920;SDS011;64600;44.062;2.986;2023-02-22T01:36:17;22.60;;;11.40;;
75920;SDS011;64600;44.062;2.986;2023-02-22T01:38:43;20.65;;;11.13;;
75920;SDS011;64600;44.062;2.986;2023-02-22T01:41:09;23.25;;;11.65;;
75920;SDS011;64600;44.062;2.986;2023-02-22T01:43:36;22.90;;;12.13;;
75920;SDS011;64600;44.062;2.986;2023-02-22T01:46:03;23.92;;;12.20;;
75920;SDS011;64600;44.062;2.986;2023-02-22T01:48:32;22.65;;;11.93;;
75920;SDS011;64600;44.062;2.986;2023-02-22T01:51:06;22.42;;;11.80;;
75920;SDS011;64600;44.062;2.986;2023-02-22T01:56:24;22.20;;;12.15;;
75920;SDS011;64600;44.062;2.986;2023-02-22T02:01:19;25.38;;;12.68;;
75920;SDS011;64600;44.062;2.986;2023-02-22T02:03:47;21.13;;;11.32;;
75920;SDS011;64600;44.062;2.986;2023-02-22T02:06:13;25.13;;;12.85;;
75920;SDS011;64600;44.062;2.986;2023-02-22T02:11:35;27.13;;;14.20;;
75920;SDS011;64600;44.062;2.986;2023-02-22T02:14:05;25.88;;;12.68;;
75920;SDS011;64600;44.062;2.986;2023-02-22T02:16:39;24.42;;;12.13;;
75920;SDS011;64600;44.062;2.986;2023-02-22T02:19:08;27.42;;;12.45;;
75920;SDS011;64600;44.062;2.986;2023-02-22T02:21:47;22.20;;;11.82;;
75920;SDS011;64600;44.062;2.986;2023-02-22T02:27:35;21.88;;;12.52;;
75920;SDS011;64600;44.062;2.986;2023-02-22T02:32:32;23.45;;;12.57;;
75920;SDS011;64600;44.062;2.986;2023-02-22T02:35:03;25.77;;;13.10;;
75920;SDS011;64600;44.062;2.986;2023-02-22T02:40:36;25.88;;;12.93;;
75920;SDS011;64600;44.062;2.986;2023-02-22T02:43:08;25.80;;;12.45;;
75920;SDS011;64600;44.062;2.986;2023-02-22T02:48:14;20.33;;;12.45;;
75920;SDS011;64600;44.062;2.986;2023-02-22T02:53:11;25.33;;;12.93;;
75920;SDS011;64600;44.062;2.986;2023-02-22T02:58:04;24.73;;;12.73;;
75920;SDS011;64600;44.062;2.986;2023-02-22T03:03:06;24.20;;;12.10;;
75920;SDS011;64600;44.062;2.986;2023-02-22T03:14:20;24.27;;;12.88;;
75920;SDS011;64600;44.062;2.986;2023-02-22T03:16:51;23.38;;;13.57;;
75920;SDS011;64600;44.062;2.986;2023-02-22T03:22:25;34.42;;;15.45;;
75920;SDS011;64600;44.062;2.986;2023-02-22T03:28:07;24.75;;;13.07;;
75920;SDS011;64600;44.062;2.986;2023-02-22T03:33:05;31.77;;;14.02;;
75920;SDS011;64600;44.062;2.986;2023-02-22T03:35:35;34.08;;;15.82;;
75920;SDS011;64600;44.062;2.986;2023-02-22T03:38:03;29.33;;;13.85;;
75920;SDS011;64600;44.062;2.986;2023-02-22T03:40:41;24.80;;;14.30;;
75920;SDS011;64600;44.062;2.986;2023-02-22T03:43:12;25.38;;;14.35;;
75920;SDS011;64600;44.062;2.986;2023-02-22T03:45:40;24.42;;;13.98;;
75920;SDS011;64600;44.062;2.986;2023-02-22T03:48:10;30.20;;;14.65;;
75920;SDS011;64600;44.062;2.986;2023-02-22T03:50:41;34.00;;;15.60;;
75920;SDS011;64600;44.062;2.986;2023-02-22T03:53:07;26.63;;;14.52;;
75920;SDS011;64600;44.062;2.986;2023-02-22T03:55:33;27.83;;;14.75;;
75920;SDS011;64600;44.062;2.986;2023-02-22T03:57:59;30.27;;;15.45;;
75920;SDS011;64600;44.062;2.986;2023-02-22T04:00:29;33.95;;;15.55;;
75920;SDS011;64600;44.062;2.986;2023-02-22T04:02:56;32.85;;;16.75;;
75920;SDS011;64600;44.062;2.986;2023-02-22T04:05:21;30.80;;;15.07;;
75920;SDS011;64600;44.062;2.986;2023-02-22T04:07:49;30.95;;;16.42;;
75920;SDS011;64600;44.062;2.986;2023-02-22T04:10:19;26.30;;;14.50;;
75920;SDS011;64600;44.062;2.986;2023-02-22T04:12:44;23.65;;;13.30;;
75920;SDS011;64600;44.062;2.986;2023-02-22T04:15:11;23.48;;;14.38;;
75920;SDS011;64600;44.062;2.986;2023-02-22T04:17:37;31.90;;;15.73;;
75920;SDS011;64600;44.062;2.986;2023-02-22T04:20:03;41.05;;;20.73;;
75920;SDS011;64600;44.062;2.986;2023-02-22T04:22:30;40.25;;;21.25;;
75920;SDS011;64600;44.062;2.986;2023-02-22T04:24:56;43.80;;;22.33;;
75920;SDS011;64600;44.062;2.986;2023-02-22T04:27:21;33.00;;;16.63;;
75920;SDS011;64600;44.062;2.986;2023-02-22T04:29:47;31.20;;;15.13;;
75920;SDS011;64600;44.062;2.986;2023-02-22T04:32:12;30.00;;;15.35;;
75920;SDS011;64600;44.062;2.986;2023-02-22T04:34:38;29.00;;;14.88;;
75920;SDS011;64600;44.062;2.986;2023-02-22T04:37:03;31.15;;;15.25;;
75920;SDS011;64600;44.062;2.986;2023-02-22T04:39:29;25.55;;;13.60;;
75920;SDS011;64600;44.062;2.986;2023-02-22T04:41:54;29.70;;;15.13;;
75920;SDS011;64600;44.062;2.986;2023-02-22T04:44:20;44.55;;;21.90;;
75920;SDS011;64600;44.062;2.986;2023-02-22T04:46:45;37.25;;;20.17;;
75920;SDS011;64600;44.062;2.986;2023-02-22T04:49:11;42.97;;;22.63;;
75920;SDS011;64600;44.062;2.986;2023-02-22T04:51:36;34.42;;;17.70;;
75920;SDS011;64600;44.062;2.986;2023-02-22T04:54:02;30.25;;;16.88;;
75920;SDS011;64600;44.062;2.986;2023-02-22T04:56:27;32.13;;;15.40;;
75920;SDS011;64600;44.062;2.986;2023-02-22T04:58:53;105.18;;;57.70;;
75920;SDS011;64600;44.062;2.986;2023-02-22T05:01:18;137.43;;;78.13;;
75920;SDS011;64600;44.062;2.986;2023-02-22T05:03:44;162.30;;;92.78;;
75920;SDS011;64600;44.062;2.986;2023-02-22T05:06:10;138.63;;;81.78;;
75920;SDS011;64600;44.062;2.986;2023-02-22T05:08:36;85.72;;;46.10;;
75920;SDS011;64600;44.062;2.986;2023-02-22T05:11:02;70.70;;;37.10;;
75920;SDS011;64600;44.062;2.986;2023-02-22T05:13:29;37.10;;;21.08;;
75920;SDS011;64600;44.062;2.986;2023-02-22T05:15:55;29.45;;;16.45;;
75920;SDS011;64600;44.062;2.986;2023-02-22T05:18:20;26.63;;;13.90;;
75920;SDS011;64600;44.062;2.986;2023-02-22T05:20:46;24.83;;;13.55;;
75920;SDS011;64600;44.062;2.986;2023-02-22T05:23:11;23.98;;;13.13;;
75920;SDS011;64600;44.062;2.986;2023-02-22T05:25:37;24.80;;;14.05;;
75920;SDS011;64600;44.062;2.986;2023-02-22T05:28:04;42.92;;;22.92;;
75920;SDS011;64600;44.062;2.986;2023-02-22T05:30:33;33.33;;;18.35;;
75920;SDS011;64600;44.062;2.986;2023-02-22T05:32:59;31.40;;;16.20;;
75920;SDS011;64600;44.062;2.986;2023-02-22T05:35:25;82.72;;;39.00;;
75920;SDS011;64600;44.062;2.986;2023-02-22T05:37:52;119.00;;;52.40;;
75920;SDS011;64600;44.062;2.986;2023-02-22T05:40:18;141.48;;;58.72;;
75920;SDS011;64600;44.062;2.986;2023-02-22T05:42:45;36.33;;;18.33;;
75920;SDS011;64600;44.062;2.986;2023-02-22T05:45:11;27.23;;;14.85;;
75920;SDS011;64600;44.062;2.986;2023-02-22T05:47:38;30.50;;;15.95;;
75920;SDS011;64600;44.062;2.986;2023-02-22T05:50:04;32.13;;;15.18;;
75920;SDS011;64600;44.062;2.986;2023-02-22T05:52:29;32.67;;;15.63;;
75920;SDS011;64600;44.062;2.986;2023-02-22T05:54:55;43.95;;;23.00;;
75920;SDS011;64600;44.062;2.986;2023-02-22T05:57:21;40.15;;;21.90;;
75920;SDS011;64600;44.062;2.986;2023-02-22T05:59:46;35.17;;;18.33;;
75920;SDS011;64600;44.062;2.986;2023-02-22T06:02:11;30.38;;;17.25;;
75920;SDS011;64600;44.062;2.986;2023-02-22T06:04:37;29.02;;;14.65;;
75920;SDS011;64600;44.062;2.986;2023-02-22T06:07:02;28.17;;;15.27;;
75920;SDS011;64600;44.062;2.986;2023-02-22T06:09:28;150.57;;;69.97;;
75920;SDS011;64600;44.062;2.986;2023-02-22T06:11:53;126.85;;;52.95;;
75920;SDS011;64600;44.062;2.986;2023-02-22T06:14:19;97.28;;;40.90;;
75920;SDS011;64600;44.062;2.986;2023-02-22T06:16:50;61.58;;;26.77;;
75920;SDS011;64600;44.062;2.986;2023-02-22T06:19:16;47.28;;;21.42;;
75920;SDS011;64600;44.062;2.986;2023-02-22T06:21:47;27.10;;;14.45;;
75920;SDS011;64600;44.062;2.986;2023-02-22T06:24:16;46.83;;;22.48;;
75920;SDS011;64600;44.062;2.986;2023-02-22T06:26:42;36.53;;;16.52;;
75920;SDS011;64600;44.062;2.986;2023-02-22T06:29:07;29.80;;;14.55;;
75920;SDS011;64600;44.062;2.986;2023-02-22T06:31:33;28.63;;;15.00;;
75920;SDS011;64600;44.062;2.986;2023-02-22T06:33:59;33.00;;;16.67;;
75920;SDS011;64600;44.062;2.986;2023-02-22T06:36:24;31.55;;;17.70;;
75920;SDS011;64600;44.062;2.986;2023-02-22T06:38:50;25.67;;;14.90;;
75920;SDS011;64600;44.062;2.986;2023-02-22T06:41:15;27.52;;;15.48;;
75920;SDS011;64600;44.062;2.986;2023-02-22T06:43:41;24.85;;;13.25;;
75920;SDS011;64600;44.062;2.986;2023-02-22T06:46:10;24.90;;;13.25;;
75920;SDS011;64600;44.062;2.986;2023-02-22T06:48:36;29.52;;;17.20;;
75920;SDS011;64600;44.062;2.986;2023-02-22T06:51:02;28.53;;;16.90;;
75920;SDS011;64600;44.062;2.986;2023-02-22T06:53:28;35.35;;;20.75;;
75920;SDS011;64600;44.062;2.986;2023-02-22T06:55:53;33.15;;;18.33;;
75920;SDS011;64600;44.062;2.986;2023-02-22T06:58:19;32.42;;;19.55;;
75920;SDS011;64600;44.062;2.986;2023-02-22T07:00:45;31.02;;;16.40;;
75920;SDS011;64600;44.062;2.986;2023-02-22T07:03:10;39.28;;;21.23;;
75920;SDS011;64600;44.062;2.986;2023-02-22T07:05:36;92.55;;;45.35;;
75920;SDS011;64600;44.062;2.986;2023-02-22T07:08:05;68.72;;;32.33;;
75920;SDS011;64600;44.062;2.986;2023-02-22T07:10:32;49.83;;;23.48;;
75920;SDS011;64600;44.062;2.986;2023-02-22T07:15:25;41.38;;;19.75;;
75920;SDS011;64600;44.062;2.986;2023-02-22T07:17:52;35.83;;;18.08;;
75920;SDS011;64600;44.062;2.986;2023-02-22T07:20:18;40.17;;;19.35;;
75920;SDS011;64600;44.062;2.986;2023-02-22T07:22:45;50.20;;;23.80;;
75920;SDS011;64600;44.062;2.986;2023-02-22T07:25:11;44.67;;;21.92;;
75920;SDS011;64600;44.062;2.986;2023-02-22T07:27:40;43.00;;;20.25;;
75920;SDS011;64600;44.062;2.986;2023-02-22T07:30:16;39.33;;;19.55;;
75920;SDS011;64600;44.062;2.986;2023-02-22T07:32:44;35.67;;;19.50;;
75920;SDS011;64600;44.062;2.986;2023-02-22T07:35:16;38.75;;;19.48;;
75920;SDS011;64600;44.062;2.986;2023-02-22T07:37:47;39.30;;;20.67;;
75920;SDS011;64600;44.062;2.986;2023-02-22T07:40:13;37.28;;;19.50;;
75920;SDS011;64600;44.062;2.986;2023-02-22T07:42:58;37.65;;;19.00;;
75920;SDS011;64600;44.062;2.986;2023-02-22T07:47:56;28.52;;;16.70;;
75920;SDS011;64600;44.062;2.986;2023-02-22T07:50:23;34.47;;;18.75;;
75920;SDS011;64600;44.062;2.986;2023-02-22T07:52:54;51.92;;;26.95;;
75920;SDS011;64600;44.062;2.986;2023-02-22T07:55:21;49.10;;;25.27;;
75920;SDS011;64600;44.062;2.986;2023-02-22T07:57:49;47.28;;;25.42;;
75920;SDS011;64600;44.062;2.986;2023-02-22T08:00:16;34.42;;;19.63;;
75920;SDS011;64600;44.062;2.986;2023-02-22T08:02:47;35.85;;;18.55;;
75920;SDS011;64600;44.062;2.986;2023-02-22T08:05:13;33.78;;;18.38;;
75920;SDS011;64600;44.062;2.986;2023-02-22T08:07:39;33.90;;;18.85;;
75920;SDS011;64600;44.062;2.986;2023-02-22T08:10:05;35.42;;;17.20;;
75920;SDS011;64600;44.062;2.986;2023-02-22T08:12:35;34.35;;;17.63;;
75920;SDS011;64600;44.062;2.986;2023-02-22T08:15:05;33.38;;;17.50;;
75920;SDS011;64600;44.062;2.986;2023-02-22T08:17:32;32.60;;;16.73;;
75920;SDS011;64600;44.062;2.986;2023-02-22T08:19:57;27.45;;;16.13;;
75920;SDS011;64600;44.062;2.986;2023-02-22T08:22:23;27.80;;;14.98;;
75920;SDS011;64600;44.062;2.986;2023-02-22T08:24:48;32.95;;;16.83;;
75920;SDS011;64600;44.062;2.986;2023-02-22T08:27:21;30.13;;;16.35;;
75920;SDS011;64600;44.062;2.986;2023-02-22T08:29:50;30.35;;;17.65;;
75920;SDS011;64600;44.062;2.986;2023-02-22T08:32:16;33.20;;;17.05;;
75920;SDS011;64600;44.062;2.986;2023-02-22T08:34:42;29.17;;;15.10;;
75920;SDS011;64600;44.062;2.986;2023-02-22T08:37:08;35.08;;;18.08;;
75920;SDS011;64600;44.062;2.986;2023-02-22T08:39:33;31.02;;;17.38;;
75920;SDS011;64600;44.062;2.986;2023-02-22T08:41:59;32.00;;;17.90;;
75920;SDS011;64600;44.062;2.986;2023-02-22T08:44:24;32.53;;;17.48;;
75920;SDS011;64600;44.062;2.986;2023-02-22T08:46:50;31.25;;;16.88;;
75920;SDS011;64600;44.062;2.986;2023-02-22T08:49:15;30.23;;;17.90;;
75920;SDS011;64600;44.062;2.986;2023-02-22T08:51:41;30.20;;;17.48;;
75920;SDS011;64600;44.062;2.986;2023-02-22T08:54:07;26.73;;;14.90;;
75920;SDS011;64600;44.062;2.986;2023-02-22T08:56:32;34.25;;;17.45;;
75920;SDS011;64600;44.062;2.986;2023-02-22T08:58:58;35.05;;;18.02;;
75920;SDS011;64600;44.062;2.986;2023-02-22T09:01:23;29.63;;;16.65;;
75920;SDS011;64600;44.062;2.986;2023-02-22T09:03:49;28.80;;;16.08;;
75920;SDS011;64600;44.062;2.986;2023-02-22T09:06:15;26.65;;;15.65;;
75920;SDS011;64600;44.062;2.986;2023-02-22T09:08:42;29.05;;;16.13;;
75920;SDS011;64600;44.062;2.986;2023-02-22T09:11:07;29.02;;;15.25;;
75920;SDS011;64600;44.062;2.986;2023-02-22T09:13:33;24.20;;;13.45;;
75920;SDS011;64600;44.062;2.986;2023-02-22T09:15:58;25.02;;;13.95;;
75920;SDS011;64600;44.062;2.986;2023-02-22T09:18:25;22.73;;;13.25;;
75920;SDS011;64600;44.062;2.986;2023-02-22T09:23:18;25.92;;;12.23;;
75920;SDS011;64600;44.062;2.986;2023-02-22T09:28:10;21.13;;;12.70;;
75920;SDS011;64600;44.062;2.986;2023-02-22T09:30:36;22.95;;;11.52;;
75920;SDS011;64600;44.062;2.986;2023-02-22T09:33:03;21.58;;;11.75;;
75920;SDS011;64600;44.062;2.986;2023-02-22T09:35:36;22.48;;;12.65;;
75920;SDS011;64600;44.062;2.986;2023-02-22T09:38:06;21.95;;;11.95;;
75920;SDS011;64600;44.062;2.986;2023-02-22T09:40:32;23.30;;;12.77;;
75920;SDS011;64600;44.062;2.986;2023-02-22T09:43:23;22.25;;;12.13;;
75920;SDS011;64600;44.062;2.986;2023-02-22T09:48:30;21.33;;;12.10;;
75920;SDS011;64600;44.062;2.986;2023-02-22T09:50:58;20.95;;;12.30;;
75920;SDS011;64600;44.062;2.986;2023-02-22T09:53:37;19.83;;;11.27;;
75920;SDS011;64600;44.062;2.986;2023-02-22T09:56:07;21.65;;;12.32;;
75920;SDS011;64600;44.062;2.986;2023-02-22T09:58:38;19.60;;;11.00;;
75920;SDS011;64600;44.062;2.986;2023-02-22T10:04:32;21.35;;;12.60;;
75920;SDS011;64600;44.062;2.986;2023-02-22T10:06:43;18.77;;;11.02;;
75920;SDS011;64600;44.062;2.986;2023-02-22T10:09:18;21.40;;;11.90;;
75920;SDS011;64600;44.062;2.986;2023-02-22T10:19:46;21.15;;;11.00;;
75920;SDS011;64600;44.062;2.986;2023-02-22T10:22:40;21.30;;;12.07;;
75920;SDS011;64600;44.062;2.986;2023-02-22T10:25:17;22.17;;;11.55;;
75920;SDS011;64600;44.062;2.986;2023-02-22T10:27:51;19.08;;;11.60;;
75920;SDS011;64600;44.062;2.986;2023-02-22T10:30:45;22.83;;;12.80;;
75920;SDS011;64600;44.062;2.986;2023-02-22T10:33:38;20.88;;;10.98;;
75920;SDS011;64600;44.062;2.986;2023-02-22T10:36:13;27.23;;;16.75;;
75920;SDS011;64600;44.062;2.986;2023-02-22T10:38:41;24.83;;;13.80;;
75920;SDS011;64600;44.062;2.986;2023-02-22T10:41:32;18.98;;;9.40;;
75920;SDS011;64600;44.062;2.986;2023-02-22T10:43:59;19.55;;;9.52;;
75920;SDS011;64600;44.062;2.986;2023-02-22T10:48:51;18.52;;;9.27;;
75920;SDS011;64600;44.062;2.986;2023-02-22T10:51:19;18.98;;;9.75;;
75920;SDS011;64600;44.062;2.986;2023-02-22T10:53:44;29.17;;;15.55;;
75920;SDS011;64600;44.062;2.986;2023-02-22T10:56:21;24.52;;;13.40;;
75920;SDS011;64600;44.062;2.986;2023-02-22T11:06:26;18.70;;;9.15;;
75920;SDS011;64600;44.062;2.986;2023-02-22T11:08:56;16.58;;;8.85;;
75920;SDS011;64600;44.062;2.986;2023-02-22T11:11:37;20.20;;;9.20;;
75920;SDS011;64600;44.062;2.986;2023-02-22T11:14:06;19.67;;;10.10;;
75920;SDS011;64600;44.062;2.986;2023-02-22T11:16:48;23.33;;;10.65;;
75920;SDS011;64600;44.062;2.986;2023-02-22T11:21:44;21.52;;;9.50;;
75920;SDS011;64600;44.062;2.986;2023-02-22T11:24:12;23.13;;;10.07;;
75920;SDS011;64600;44.062;2.986;2023-02-22T11:26:42;23.52;;;11.05;;
75920;SDS011;64600;44.062;2.986;2023-02-22T11:29:10;19.65;;;9.57;;
75920;SDS011;64600;44.062;2.986;2023-02-22T11:31:41;21.60;;;10.75;;
75920;SDS011;64600;44.062;2.986;2023-02-22T11:34:23;22.30;;;10.73;;
75920;SDS011;64600;44.062;2.986;2023-02-22T11:39:46;24.93;;;12.43;;
75920;SDS011;64600;44.062;2.986;2023-02-22T11:44:47;21.63;;;10.88;;
75920;SDS011;64600;44.062;2.986;2023-02-22T11:47:13;21.25;;;10.38;;
75920;SDS011;64600;44.062;2.986;2023-02-22T11:49:40;21.30;;;9.55;;
75920;SDS011;64600;44.062;2.986;2023-02-22T11:57:58;28.63;;;11.07;;
75920;SDS011;64600;44.062;2.986;2023-02-22T12:00:41;24.50;;;11.50;;
75920;SDS011;64600;44.062;2.986;2023-02-22T12:13:53;24.92;;;12.32;;
75920;SDS011;64600;44.062;2.986;2023-02-22T12:16:39;23.75;;;12.55;;
75920;SDS011;64600;44.062;2.986;2023-02-22T12:19:27;20.23;;;11.27;;
75920;SDS011;64600;44.062;2.986;2023-02-22T12:22:28;22.00;;;12.35;;
75920;SDS011;64600;44.062;2.986;2023-02-22T12:30:24;22.27;;;12.20;;
75920;SDS011;64600;44.062;2.986;2023-02-22T12:32:53;25.38;;;11.75;;
75920;SDS011;64600;44.062;2.986;2023-02-22T12:35:27;29.38;;;12.52;;
75920;SDS011;64600;44.062;2.986;2023-02-22T12:38:03;39.83;;;13.88;;
75920;SDS011;64600;44.062;2.986;2023-02-22T12:43:35;19.70;;;11.07;;
75920;SDS011;64600;44.062;2.986;2023-02-22T12:46:19;26.88;;;11.32;;
75920;SDS011;64600;44.062;2.986;2023-02-22T12:59:52;37.80;;;18.13;;
75920;SDS011;64600;44.062;2.986;2023-02-22T13:02:30;29.63;;;15.02;;
75920;SDS011;64600;44.062;2.986;2023-02-22T13:05:00;26.58;;;13.88;;
75920;SDS011;64600;44.062;2.986;2023-02-22T13:07:45;53.17;;;24.57;;
75920;SDS011;64600;44.062;2.986;2023-02-22T13:10:34;27.35;;;12.38;;
75920;SDS011;64600;44.062;2.986;2023-02-22T13:26:49;22.02;;;11.32;;
75920;SDS011;64600;44.062;2.986;2023-02-22T13:29:19;26.90;;;11.77;;
75920;SDS011;64600;44.062;2.986;2023-02-22T13:31:57;26.60;;;11.30;;
75920;SDS011;64600;44.062;2.986;2023-02-22T13:37:32;25.45;;;11.35;;
75920;SDS011;64600;44.062;2.986;2023-02-22T13:40:17;24.67;;;12.13;;
75920;SDS011;64600;44.062;2.986;2023-02-22T13:52:05;22.25;;;10.63;;
75920;SDS011;64600;44.062;2.986;2023-02-22T13:54:40;20.73;;;10.10;;
75920;SDS011;64600;44.062;2.986;2023-02-22T13:57:22;22.25;;;10.52;;
75920;SDS011;64600;44.062;2.986;2023-02-22T13:59:54;25.83;;;11.27;;
75920;SDS011;64600;44.062;2.986;2023-02-22T14:08:00;25.65;;;10.15;;
75920;SDS011;64600;44.062;2.986;2023-02-22T14:13:13;19.25;;;10.48;;
75920;SDS011;64600;44.062;2.986;2023-02-22T14:18:24;28.35;;;10.13;;
75920;SDS011;64600;44.062;2.986;2023-02-22T14:28:51;23.42;;;10.00;;
75920;SDS011;64600;44.062;2.986;2023-02-22T14:36:43;18.52;;;9.18;;
75920;SDS011;64600;44.062;2.986;2023-02-22T14:39:33;22.17;;;9.40;;
75920;SDS011;64600;44.062;2.986;2023-02-22T14:42:06;25.30;;;9.63;;
75920;SDS011;64600;44.062;2.986;2023-02-22T14:44:39;18.75;;;9.48;;
75920;SDS011;64600;44.062;2.986;2023-02-22T14:47:12;27.10;;;9.10;;
75920;SDS011;64600;44.062;2.986;2023-02-22T14:49:41;23.92;;;9.45;;
75920;SDS011;64600;44.062;2.986;2023-02-22T14:52:16;22.20;;;8.57;;
75920;SDS011;64600;44.062;2.986;2023-02-22T14:54:55;21.20;;;9.00;;
75920;SDS011;64600;44.062;2.986;2023-02-22T15:00:38;16.95;;;8.07;;
75920;SDS011;64600;44.062;2.986;2023-02-22T15:03:10;25.45;;;9.80;;
75920;SDS011;64600;44.062;2.986;2023-02-22T15:05:42;18.70;;;8.45;;
75920;SDS011;64600;44.062;2.986;2023-02-22T15:08:08;23.60;;;8.98;;
75920;SDS011;64600;44.062;2.986;2023-02-22T15:10:44;19.92;;;9.75;;
75920;SDS011;64600;44.062;2.986;2023-02-22T15:15:48;24.55;;;8.95;;
75920;SDS011;64600;44.062;2.986;2023-02-22T15:18:52;16.58;;;8.65;;
75920;SDS011;64600;44.062;2.986;2023-02-22T15:21:16;23.40;;;9.20;;
75920;SDS011;64600;44.062;2.986;2023-02-22T15:23:52;18.23;;;8.77;;
75920;SDS011;64600;44.062;2.986;2023-02-22T15:26:22;19.23;;;9.25;;
75920;SDS011;64600;44.062;2.986;2023-02-22T15:29:00;27.02;;;8.82;;
75920;SDS011;64600;44.062;2.986;2023-02-22T15:31:31;20.50;;;8.50;;
75920;SDS011;64600;44.062;2.986;2023-02-22T15:36:39;19.25;;;8.65;;
75920;SDS011;64600;44.062;2.986;2023-02-22T15:39:05;22.42;;;8.80;;
75920;SDS011;64600;44.062;2.986;2023-02-22T15:41:33;22.80;;;8.65;;
75920;SDS011;64600;44.062;2.986;2023-02-22T15:46:29;20.10;;;9.60;;
75920;SDS011;64600;44.062;2.986;2023-02-22T15:51:30;22.23;;;9.07;;
75920;SDS011;64600;44.062;2.986;2023-02-22T15:53:57;20.25;;;7.95;;
75920;SDS011;64600;44.062;2.986;2023-02-22T15:56:26;23.95;;;7.95;;
75920;SDS011;64600;44.062;2.986;2023-02-22T15:59:19;17.50;;;8.05;;
75920;SDS011;64600;44.062;2.986;2023-02-22T16:01:45;19.42;;;7.88;;
75920;SDS011;64600;44.062;2.986;2023-02-22T16:04:30;20.00;;;7.45;;
75920;SDS011;64600;44.062;2.986;2023-02-22T16:07:05;23.40;;;8.95;;
75920;SDS011;64600;44.062;2.986;2023-02-22T16:09:44;19.17;;;7.40;;
75920;SDS011;64600;44.062;2.986;2023-02-22T16:14:46;18.23;;;6.80;;
75920;SDS011;64600;44.062;2.986;2023-02-22T16:17:28;16.92;;;6.82;;
75920;SDS011;64600;44.062;2.986;2023-02-22T16:22:43;20.65;;;7.65;;
75920;SDS011;64600;44.062;2.986;2023-02-22T16:25:23;19.63;;;8.10;;
75920;SDS011;64600;44.062;2.986;2023-02-22T16:27:56;20.00;;;7.70;;
75920;SDS011;64600;44.062;2.986;2023-02-22T16:30:29;25.27;;;8.93;;
75920;SDS011;64600;44.062;2.986;2023-02-22T16:32:56;22.20;;;8.10;;
75920;SDS011;64600;44.062;2.986;2023-02-22T16:35:26;24.92;;;7.57;;
75920;SDS011;64600;44.062;2.986;2023-02-22T16:38:10;27.77;;;7.85;;
75920;SDS011;64600;44.062;2.986;2023-02-22T16:40:50;30.33;;;10.65;;
75920;SDS011;64600;44.062;2.986;2023-02-22T16:43:19;23.90;;;9.30;;
75920;SDS011;64600;44.062;2.986;2023-02-22T16:45:47;20.60;;;8.20;;
75920;SDS011;64600;44.062;2.986;2023-02-22T16:48:14;22.52;;;9.15;;
75920;SDS011;64600;44.062;2.986;2023-02-22T16:50:47;24.52;;;8.90;;
75920;SDS011;64600;44.062;2.986;2023-02-22T16:53:15;25.05;;;11.05;;
75920;SDS011;64600;44.062;2.986;2023-02-22T16:55:44;22.33;;;10.00;;
75920;SDS011;64600;44.062;2.986;2023-02-22T16:58:11;23.17;;;8.40;;
75920;SDS011;64600;44.062;2.986;2023-02-22T17:00:38;25.08;;;9.20;;
75920;SDS011;64600;44.062;2.986;2023-02-22T17:03:06;25.35;;;8.35;;
75920;SDS011;64600;44.062;2.986;2023-02-22T17:05:36;22.95;;;8.93;;
75920;SDS011;64600;44.062;2.986;2023-02-22T17:08:02;24.75;;;9.55;;
75920;SDS011;64600;44.062;2.986;2023-02-22T17:10:28;18.45;;;7.90;;
75920;SDS011;64600;44.062;2.986;2023-02-22T17:12:53;18.40;;;7.28;;
75920;SDS011;64600;44.062;2.986;2023-02-22T17:15:21;24.70;;;8.93;;
75920;SDS011;64600;44.062;2.986;2023-02-22T17:17:50;22.65;;;9.50;;
75920;SDS011;64600;44.062;2.986;2023-02-22T17:20:16;21.87;;;8.60;;
75920;SDS011;64600;44.062;2.986;2023-02-22T17:22:54;23.73;;;9.07;;
75920;SDS011;64600;44.062;2.986;2023-02-22T17:25:24;24.13;;;9.18;;
75920;SDS011;64600;44.062;2.986;2023-02-22T17:27:57;27.70;;;8.60;;
75920;SDS011;64600;44.062;2.986;2023-02-22T17:30:23;25.90;;;9.00;;
75920;SDS011;64600;44.062;2.986;2023-02-22T17:32:49;20.42;;;8.20;;
75920;SDS011;64600;44.062;2.986;2023-02-22T17:35:16;16.75;;;8.00;;
75920;SDS011;64600;44.062;2.986;2023-02-22T17:37:44;24.08;;;10.32;;
75920;SDS011;64600;44.062;2.986;2023-02-22T17:40:11;27.42;;;13.68;;
75920;SDS011;64600;44.062;2.986;2023-02-22T17:42:39;26.27;;;12.70;;
75920;SDS011;64600;44.062;2.986;2023-02-22T17:45:05;31.25;;;15.15;;
75920;SDS011;64600;44.062;2.986;2023-02-22T17:47:31;30.10;;;15.38;;